Warning: Javascript must be enabled to use all the features on this page!


Page Loading - Please Wait...

Click to hideNews Bulletins

Peak Streamflow for the Nation

USGS 10319900 S FK HUMBOLDT RV ABV TENMILE CK NR ELKO, NV

Elko County, Nevada
Hydrologic Unit Code 16040103
Latitude  40°37'38.99", Longitude 115°43'49.88" NAD83
Drainage area 898  square miles
Gage datum 5,275 feet above NGVD29
Output formats
Table
Graph
Tab-separated file
peakfq (watstore) format
Reselect output format
Water
Year
Date Gage
Height
(feet)
Stream-
flow
(cfs)
1989 1989-05-10 3.71 608
1990 1990-05-29 3.74 633
1991 1991-06-13 4.69 1,090
1992 1992-05-09 3.04 241
1993 1993-05-21 4.65 1,110
1994 1994-05-31 4.04 699
1995 1995-06-03 5.82 2,710
1996 1996-05-17 4.73 1,520
1997 1997-06-10 4.00 1,140
1998 1998-06-04 4.97 1,800
1999 1999-05-28 3.83 1,540
2000 2000-05-26 3.69 1,370
2001 2001-05-16 3.13 728
2002 2002-06-02 3.63 1,090
2003 2003-05-31 4.65 1,760
2004 2004-05-28 2.35 410
2005 2005-05-29 5.23 2,230
2006 2006-05-23 4.43 1,980
2007 2007-05-20 5.796 491
2008 2008-05-21 6.75 768
2009 2009-06-20 7.85 1,430
2010 2010-06-09 8.76 2,210
2011 2011-06-24 8.81 2,070
2012 2012-05-17 5.22 227
2013 2013-05-16 5.28 282
2014 2014-02-10 8.77 2,220
2015 2015-06-11 7.13 960
2016 2016-06-08 7.49 1,180
2017 2017-06-07 7.66 1,300
2018 2018-05-31 6.06 449
2019 2019-06-07 8.63 1,980
2020 2020-05-30 5.78 348
?
  Peak Gage-Height Qualification Codes.